Terminal Aerodrome Forecast
Issued by NWS

Home | Current Version | Previous Version | Text Only | Print | Product List | Glossary On
Versions: 1 2 3 4 5 6 7 8 9 10 11 12 13 14 15
926
FTAK31 PAJN 221422 AAA
TAFAPG
TAF AMD
PAPG 221422Z 2214/2312 20009KT P6SM -RA BKN006 OVC015
      TEMPO 2214/2217 5SM -RA BR SCT006 BKN015 OVC035
     FM221800 12008KT P6SM -RA SCT008 OVC018
     FM230300 11005KT P6SM -SHRA BKN007 OVC012
      AMD LTD TO CLD VIS AND WIND 2214/2215=

USA.gov is the U.S. government's official web portal to all federal, state and local government web resources and services.